sensor_id;sensor_type;location;lat;lon;timestamp;P1;durP1;ratioP1;P2;durP2;ratioP2
58615;SDS011;44385;51.992;4.206;2024-03-22T00:01:42;55.72;;;23.23;;
58615;SDS011;44385;51.992;4.206;2024-03-22T00:04:09;61.38;;;26.27;;
58615;SDS011;44385;51.992;4.206;2024-03-22T00:06:34;54.42;;;23.27;;
58615;SDS011;44385;51.992;4.206;2024-03-22T00:09:01;62.35;;;26.13;;
58615;SDS011;44385;51.992;4.206;2024-03-22T00:11:26;58.95;;;24.10;;
58615;SDS011;44385;51.992;4.206;2024-03-22T00:13:53;58.70;;;25.38;;
58615;SDS011;44385;51.992;4.206;2024-03-22T00:16:19;69.28;;;27.88;;
58615;SDS011;44385;51.992;4.206;2024-03-22T00:18:46;66.57;;;29.88;;
58615;SDS011;44385;51.992;4.206;2024-03-22T00:21:12;59.70;;;27.20;;
58615;SDS011;44385;51.992;4.206;2024-03-22T00:23:38;71.00;;;28.48;;
58615;SDS011;44385;51.992;4.206;2024-03-22T00:26:04;71.75;;;29.83;;
58615;SDS011;44385;51.992;4.206;2024-03-22T00:28:30;65.57;;;26.15;;
58615;SDS011;44385;51.992;4.206;2024-03-22T00:30:56;70.60;;;31.33;;
58615;SDS011;44385;51.992;4.206;2024-03-22T00:33:24;58.63;;;25.70;;
58615;SDS011;44385;51.992;4.206;2024-03-22T00:35:50;68.50;;;29.15;;
58615;SDS011;44385;51.992;4.206;2024-03-22T00:38:16;63.33;;;27.15;;
58615;SDS011;44385;51.992;4.206;2024-03-22T00:40:42;51.47;;;23.30;;
58615;SDS011;44385;51.992;4.206;2024-03-22T00:43:09;41.75;;;19.67;;
58615;SDS011;44385;51.992;4.206;2024-03-22T00:45:34;38.25;;;18.38;;
58615;SDS011;44385;51.992;4.206;2024-03-22T00:48:00;38.92;;;19.75;;
58615;SDS011;44385;51.992;4.206;2024-03-22T00:50:27;45.88;;;20.85;;
58615;SDS011;44385;51.992;4.206;2024-03-22T00:52:54;36.70;;;18.95;;
58615;SDS011;44385;51.992;4.206;2024-03-22T00:55:21;38.22;;;20.13;;
58615;SDS011;44385;51.992;4.206;2024-03-22T00:57:48;44.08;;;20.92;;
58615;SDS011;44385;51.992;4.206;2024-03-22T01:00:13;34.05;;;16.92;;
58615;SDS011;44385;51.992;4.206;2024-03-22T01:02:40;18.13;;;9.85;;
58615;SDS011;44385;51.992;4.206;2024-03-22T01:05:06;18.85;;;10.77;;
58615;SDS011;44385;51.992;4.206;2024-03-22T01:07:35;20.48;;;12.55;;
58615;SDS011;44385;51.992;4.206;2024-03-22T01:10:00;24.42;;;11.70;;
58615;SDS011;44385;51.992;4.206;2024-03-22T01:12:27;24.10;;;12.38;;
58615;SDS011;44385;51.992;4.206;2024-03-22T01:14:53;26.52;;;13.07;;
58615;SDS011;44385;51.992;4.206;2024-03-22T01:17:20;22.50;;;11.77;;
58615;SDS011;44385;51.992;4.206;2024-03-22T01:19:46;26.67;;;16.73;;
58615;SDS011;44385;51.992;4.206;2024-03-22T01:22:12;29.05;;;15.95;;
58615;SDS011;44385;51.992;4.206;2024-03-22T01:24:39;28.65;;;16.08;;
58615;SDS011;44385;51.992;4.206;2024-03-22T01:27:05;23.38;;;13.07;;
58615;SDS011;44385;51.992;4.206;2024-03-22T01:29:31;32.17;;;18.08;;
58615;SDS011;44385;51.992;4.206;2024-03-22T01:31:58;20.13;;;11.10;;
58615;SDS011;44385;51.992;4.206;2024-03-22T01:34:24;22.27;;;11.25;;
58615;SDS011;44385;51.992;4.206;2024-03-22T01:36:50;28.23;;;14.95;;
58615;SDS011;44385;51.992;4.206;2024-03-22T01:39:16;27.70;;;13.73;;
58615;SDS011;44385;51.992;4.206;2024-03-22T01:41:44;30.30;;;13.85;;
58615;SDS011;44385;51.992;4.206;2024-03-22T01:44:10;32.95;;;17.10;;
58615;SDS011;44385;51.992;4.206;2024-03-22T01:46:39;38.20;;;15.75;;
58615;SDS011;44385;51.992;4.206;2024-03-22T01:49:04;32.33;;;15.38;;
58615;SDS011;44385;51.992;4.206;2024-03-22T01:51:31;34.58;;;16.38;;
58615;SDS011;44385;51.992;4.206;2024-03-22T01:53:56;28.30;;;14.73;;
58615;SDS011;44385;51.992;4.206;2024-03-22T01:56:25;24.27;;;11.50;;
58615;SDS011;44385;51.992;4.206;2024-03-22T01:58:52;26.58;;;10.88;;
58615;SDS011;44385;51.992;4.206;2024-03-22T02:01:19;20.00;;;9.50;;
58615;SDS011;44385;51.992;4.206;2024-03-22T02:03:44;26.20;;;12.30;;
58615;SDS011;44385;51.992;4.206;2024-03-22T02:06:11;26.38;;;12.38;;
58615;SDS011;44385;51.992;4.206;2024-03-22T02:08:36;16.67;;;8.20;;
58615;SDS011;44385;51.992;4.206;2024-03-22T02:11:03;18.15;;;10.10;;
58615;SDS011;44385;51.992;4.206;2024-03-22T02:13:28;30.45;;;12.05;;
58615;SDS011;44385;51.992;4.206;2024-03-22T02:15:56;26.05;;;11.15;;
58615;SDS011;44385;51.992;4.206;2024-03-22T02:18:23;22.83;;;10.60;;
58615;SDS011;44385;51.992;4.206;2024-03-22T02:20:49;33.25;;;11.63;;
58615;SDS011;44385;51.992;4.206;2024-03-22T02:23:15;28.02;;;11.38;;
58615;SDS011;44385;51.992;4.206;2024-03-22T02:25:43;15.30;;;8.43;;
58615;SDS011;44385;51.992;4.206;2024-03-22T02:28:08;22.55;;;10.52;;
58615;SDS011;44385;51.992;4.206;2024-03-22T02:30:35;30.00;;;12.73;;
58615;SDS011;44385;51.992;4.206;2024-03-22T02:33:00;32.08;;;10.48;;
58615;SDS011;44385;51.992;4.206;2024-03-22T02:35:27;24.73;;;10.68;;
58615;SDS011;44385;51.992;4.206;2024-03-22T02:37:52;24.00;;;10.25;;
58615;SDS011;44385;51.992;4.206;2024-03-22T02:40:19;18.02;;;8.95;;
58615;SDS011;44385;51.992;4.206;2024-03-22T02:42:46;20.45;;;9.68;;
58615;SDS011;44385;51.992;4.206;2024-03-22T02:45:13;16.80;;;7.97;;
58615;SDS011;44385;51.992;4.206;2024-03-22T02:47:39;30.70;;;8.82;;
58615;SDS011;44385;51.992;4.206;2024-03-22T02:50:06;28.10;;;11.15;;
58615;SDS011;44385;51.992;4.206;2024-03-22T02:52:31;24.67;;;9.20;;
58615;SDS011;44385;51.992;4.206;2024-03-22T02:54:58;21.60;;;8.32;;
58615;SDS011;44385;51.992;4.206;2024-03-22T02:57:23;19.90;;;7.97;;
58615;SDS011;44385;51.992;4.206;2024-03-22T02:59:51;26.98;;;9.15;;
58615;SDS011;44385;51.992;4.206;2024-03-22T03:02:17;22.80;;;9.90;;
58615;SDS011;44385;51.992;4.206;2024-03-22T03:04:43;26.80;;;10.45;;
58615;SDS011;44385;51.992;4.206;2024-03-22T03:07:09;26.08;;;9.07;;
58615;SDS011;44385;51.992;4.206;2024-03-22T03:09:36;21.83;;;8.60;;
58615;SDS011;44385;51.992;4.206;2024-03-22T03:12:01;29.25;;;9.57;;
58615;SDS011;44385;51.992;4.206;2024-03-22T03:14:28;29.60;;;8.82;;
58615;SDS011;44385;51.992;4.206;2024-03-22T03:16:55;28.23;;;10.32;;
58615;SDS011;44385;51.992;4.206;2024-03-22T03:19:21;24.50;;;9.65;;
58615;SDS011;44385;51.992;4.206;2024-03-22T03:21:46;28.73;;;11.30;;
58615;SDS011;44385;51.992;4.206;2024-03-22T03:24:13;27.65;;;10.13;;
58615;SDS011;44385;51.992;4.206;2024-03-22T03:26:38;30.92;;;10.93;;
58615;SDS011;44385;51.992;4.206;2024-03-22T03:29:05;24.80;;;9.77;;
58615;SDS011;44385;51.992;4.206;2024-03-22T03:31:30;27.75;;;10.02;;
58615;SDS011;44385;51.992;4.206;2024-03-22T03:33:58;29.83;;;9.63;;
58615;SDS011;44385;51.992;4.206;2024-03-22T03:36:24;31.20;;;9.63;;
58615;SDS011;44385;51.992;4.206;2024-03-22T03:38:50;28.90;;;10.25;;
58615;SDS011;44385;51.992;4.206;2024-03-22T03:41:18;26.17;;;9.77;;
58615;SDS011;44385;51.992;4.206;2024-03-22T03:43:44;29.77;;;10.45;;
58615;SDS011;44385;51.992;4.206;2024-03-22T03:46:10;27.45;;;10.38;;
58615;SDS011;44385;51.992;4.206;2024-03-22T03:48:36;30.63;;;10.45;;
58615;SDS011;44385;51.992;4.206;2024-03-22T03:51:03;28.73;;;10.88;;
58615;SDS011;44385;51.992;4.206;2024-03-22T03:53:30;25.83;;;11.00;;
58615;SDS011;44385;51.992;4.206;2024-03-22T03:55:55;25.83;;;9.90;;
58615;SDS011;44385;51.992;4.206;2024-03-22T03:58:22;27.90;;;11.85;;
58615;SDS011;44385;51.992;4.206;2024-03-22T04:00:47;26.65;;;10.05;;
58615;SDS011;44385;51.992;4.206;2024-03-22T04:03:14;21.38;;;8.23;;
58615;SDS011;44385;51.992;4.206;2024-03-22T04:05:39;35.55;;;10.55;;
58615;SDS011;44385;51.992;4.206;2024-03-22T04:08:07;36.47;;;11.00;;
58615;SDS011;44385;51.992;4.206;2024-03-22T04:10:33;24.23;;;8.93;;
58615;SDS011;44385;51.992;4.206;2024-03-22T04:12:59;20.52;;;9.73;;
58615;SDS011;44385;51.992;4.206;2024-03-22T04:15:25;27.95;;;10.10;;
58615;SDS011;44385;51.992;4.206;2024-03-22T04:17:51;27.02;;;10.95;;
58615;SDS011;44385;51.992;4.206;2024-03-22T04:20:17;28.95;;;11.20;;
58615;SDS011;44385;51.992;4.206;2024-03-22T04:22:43;29.45;;;10.27;;
58615;SDS011;44385;51.992;4.206;2024-03-22T04:25:10;33.40;;;10.32;;
58615;SDS011;44385;51.992;4.206;2024-03-22T04:27:37;28.75;;;12.57;;
58615;SDS011;44385;51.992;4.206;2024-03-22T04:30:03;30.98;;;11.68;;
58615;SDS011;44385;51.992;4.206;2024-03-22T04:32:30;28.00;;;10.55;;
58615;SDS011;44385;51.992;4.206;2024-03-22T04:34:55;41.05;;;10.82;;
58615;SDS011;44385;51.992;4.206;2024-03-22T04:37:22;33.55;;;10.73;;
58615;SDS011;44385;51.992;4.206;2024-03-22T04:39:49;26.40;;;11.63;;
58615;SDS011;44385;51.992;4.206;2024-03-22T04:42:17;27.13;;;10.77;;
58615;SDS011;44385;51.992;4.206;2024-03-22T04:44:43;29.05;;;11.93;;
58615;SDS011;44385;51.992;4.206;2024-03-22T04:47:10;31.58;;;12.30;;
58615;SDS011;44385;51.992;4.206;2024-03-22T04:49:36;26.05;;;10.05;;
58615;SDS011;44385;51.992;4.206;2024-03-22T04:52:02;28.58;;;13.15;;
58615;SDS011;44385;51.992;4.206;2024-03-22T04:54:28;32.83;;;12.32;;
58615;SDS011;44385;51.992;4.206;2024-03-22T04:56:54;35.75;;;13.02;;
58615;SDS011;44385;51.992;4.206;2024-03-22T04:59:22;30.33;;;10.90;;
58615;SDS011;44385;51.992;4.206;2024-03-22T05:01:47;30.25;;;11.60;;
58615;SDS011;44385;51.992;4.206;2024-03-22T05:04:13;26.98;;;10.52;;
58615;SDS011;44385;51.992;4.206;2024-03-22T05:06:39;20.08;;;10.57;;
58615;SDS011;44385;51.992;4.206;2024-03-22T05:09:07;29.05;;;10.98;;
58615;SDS011;44385;51.992;4.206;2024-03-22T05:11:35;27.73;;;11.18;;
58615;SDS011;44385;51.992;4.206;2024-03-22T05:14:01;33.58;;;11.13;;
58615;SDS011;44385;51.992;4.206;2024-03-22T05:16:29;26.63;;;10.63;;
58615;SDS011;44385;51.992;4.206;2024-03-22T05:18:55;31.70;;;10.80;;
58615;SDS011;44385;51.992;4.206;2024-03-22T05:21:21;20.33;;;8.48;;
58615;SDS011;44385;51.992;4.206;2024-03-22T05:23:47;26.80;;;11.23;;
58615;SDS011;44385;51.992;4.206;2024-03-22T05:26:13;27.77;;;12.35;;
58615;SDS011;44385;51.992;4.206;2024-03-22T05:28:39;21.55;;;10.60;;
58615;SDS011;44385;51.992;4.206;2024-03-22T05:31:05;34.17;;;11.68;;
58615;SDS011;44385;51.992;4.206;2024-03-22T05:33:33;22.15;;;8.60;;
58615;SDS011;44385;51.992;4.206;2024-03-22T05:35:58;23.35;;;10.00;;
58615;SDS011;44385;51.992;4.206;2024-03-22T05:38:25;27.38;;;9.90;;
58615;SDS011;44385;51.992;4.206;2024-03-22T05:40:50;21.52;;;8.00;;
58615;SDS011;44385;51.992;4.206;2024-03-22T05:43:17;33.50;;;11.68;;
58615;SDS011;44385;51.992;4.206;2024-03-22T05:45:42;26.50;;;10.68;;
58615;SDS011;44385;51.992;4.206;2024-03-22T05:48:09;31.65;;;11.63;;
58615;SDS011;44385;51.992;4.206;2024-03-22T05:50:36;21.25;;;7.57;;
58615;SDS011;44385;51.992;4.206;2024-03-22T05:53:02;18.30;;;7.05;;
58615;SDS011;44385;51.992;4.206;2024-03-22T05:55:28;27.80;;;8.73;;
58615;SDS011;44385;51.992;4.206;2024-03-22T05:57:56;23.63;;;9.20;;
58615;SDS011;44385;51.992;4.206;2024-03-22T06:00:21;22.80;;;7.43;;
58615;SDS011;44385;51.992;4.206;2024-03-22T06:02:48;25.77;;;8.25;;
58615;SDS011;44385;51.992;4.206;2024-03-22T06:05:13;18.63;;;7.57;;
58615;SDS011;44385;51.992;4.206;2024-03-22T06:07:44;24.53;;;8.57;;
58615;SDS011;44385;51.992;4.206;2024-03-22T06:10:11;19.02;;;8.50;;
58615;SDS011;44385;51.992;4.206;2024-03-22T06:12:37;22.40;;;7.00;;
58615;SDS011;44385;51.992;4.206;2024-03-22T06:15:03;17.48;;;7.20;;
58615;SDS011;44385;51.992;4.206;2024-03-22T06:17:31;25.80;;;8.85;;
58615;SDS011;44385;51.992;4.206;2024-03-22T06:19:57;24.65;;;7.68;;
58615;SDS011;44385;51.992;4.206;2024-03-22T06:22:23;26.02;;;8.10;;
58615;SDS011;44385;51.992;4.206;2024-03-22T06:24:50;25.88;;;8.68;;
58615;SDS011;44385;51.992;4.206;2024-03-22T06:27:16;26.67;;;9.57;;
58615;SDS011;44385;51.992;4.206;2024-03-22T06:29:42;22.42;;;7.80;;
58615;SDS011;44385;51.992;4.206;2024-03-22T06:32:09;27.15;;;9.73;;
58615;SDS011;44385;51.992;4.206;2024-03-22T06:34:34;23.80;;;7.50;;
58615;SDS011;44385;51.992;4.206;2024-03-22T06:37:02;20.25;;;7.35;;
58615;SDS011;44385;51.992;4.206;2024-03-22T06:39:27;28.40;;;9.70;;
58615;SDS011;44385;51.992;4.206;2024-03-22T06:41:55;22.20;;;8.18;;
58615;SDS011;44385;51.992;4.206;2024-03-22T06:44:21;19.33;;;8.13;;
58615;SDS011;44385;51.992;4.206;2024-03-22T06:46:48;26.08;;;8.68;;
58615;SDS011;44385;51.992;4.206;2024-03-22T06:49:13;17.83;;;8.27;;
58615;SDS011;44385;51.992;4.206;2024-03-22T06:51:40;24.17;;;7.78;;
58615;SDS011;44385;51.992;4.206;2024-03-22T06:54:05;24.05;;;8.38;;
58615;SDS011;44385;51.992;4.206;2024-03-22T06:56:32;23.88;;;7.78;;
58615;SDS011;44385;51.992;4.206;2024-03-22T06:58:59;25.40;;;8.98;;
58615;SDS011;44385;51.992;4.206;2024-03-22T07:01:25;23.00;;;7.90;;
58615;SDS011;44385;51.992;4.206;2024-03-22T07:03:51;16.13;;;5.65;;
58615;SDS011;44385;51.992;4.206;2024-03-22T07:06:18;20.05;;;6.82;;
58615;SDS011;44385;51.992;4.206;2024-03-22T07:08:43;17.45;;;6.78;;
58615;SDS011;44385;51.992;4.206;2024-03-22T07:11:10;22.15;;;7.07;;
58615;SDS011;44385;51.992;4.206;2024-03-22T07:13:35;21.25;;;7.55;;
58615;SDS011;44385;51.992;4.206;2024-03-22T07:16:03;22.95;;;6.68;;
58615;SDS011;44385;51.992;4.206;2024-03-22T07:18:32;20.77;;;7.40;;
58615;SDS011;44385;51.992;4.206;2024-03-22T07:20:58;21.77;;;5.95;;
58615;SDS011;44385;51.992;4.206;2024-03-22T07:23:26;21.00;;;7.45;;
58615;SDS011;44385;51.992;4.206;2024-03-22T07:25:52;26.40;;;7.88;;
58615;SDS011;44385;51.992;4.206;2024-03-22T07:28:18;26.50;;;8.30;;
58615;SDS011;44385;51.992;4.206;2024-03-22T07:30:44;26.30;;;8.05;;
58615;SDS011;44385;51.992;4.206;2024-03-22T07:33:11;27.85;;;7.90;;
58615;SDS011;44385;51.992;4.206;2024-03-22T07:35:42;26.52;;;7.85;;
58615;SDS011;44385;51.992;4.206;2024-03-22T07:38:07;14.52;;;7.57;;
58615;SDS011;44385;51.992;4.206;2024-03-22T07:40:34;26.50;;;7.68;;
58615;SDS011;44385;51.992;4.206;2024-03-22T07:42:59;24.40;;;7.63;;
58615;SDS011;44385;51.992;4.206;2024-03-22T07:45:30;24.88;;;8.43;;
58615;SDS011;44385;51.992;4.206;2024-03-22T07:47:56;19.67;;;9.02;;
58615;SDS011;44385;51.992;4.206;2024-03-22T07:50:24;19.25;;;7.43;;
58615;SDS011;44385;51.992;4.206;2024-03-22T07:52:50;19.13;;;8.32;;
58615;SDS011;44385;51.992;4.206;2024-03-22T07:55:16;22.58;;;7.43;;
58615;SDS011;44385;51.992;4.206;2024-03-22T07:57:43;30.63;;;8.35;;
58615;SDS011;44385;51.992;4.206;2024-03-22T08:00:09;32.10;;;9.35;;
58615;SDS011;44385;51.992;4.206;2024-03-22T08:02:36;21.10;;;8.27;;
58615;SDS011;44385;51.992;4.206;2024-03-22T08:05:01;26.80;;;10.02;;
58615;SDS011;44385;51.992;4.206;2024-03-22T08:07:30;26.92;;;10.30;;
58615;SDS011;44385;51.992;4.206;2024-03-22T08:09:55;19.80;;;7.40;;
58615;SDS011;44385;51.992;4.206;2024-03-22T08:12:24;23.90;;;9.80;;
58615;SDS011;44385;51.992;4.206;2024-03-22T08:14:49;20.20;;;7.53;;
58615;SDS011;44385;51.992;4.206;2024-03-22T08:17:16;21.92;;;8.15;;
58615;SDS011;44385;51.992;4.206;2024-03-22T08:19:42;22.20;;;8.60;;
58615;SDS011;44385;51.992;4.206;2024-03-22T08:22:09;27.35;;;9.48;;
58615;SDS011;44385;51.992;4.206;2024-03-22T08:24:43;28.40;;;9.63;;
58615;SDS011;44385;51.992;4.206;2024-03-22T08:27:10;25.50;;;9.20;;
58615;SDS011;44385;51.992;4.206;2024-03-22T08:29:35;28.60;;;9.68;;
58615;SDS011;44385;51.992;4.206;2024-03-22T08:32:02;29.08;;;8.75;;
58615;SDS011;44385;51.992;4.206;2024-03-22T08:34:29;29.73;;;10.50;;
58615;SDS011;44385;51.992;4.206;2024-03-22T08:36:57;20.70;;;7.40;;
58615;SDS011;44385;51.992;4.206;2024-03-22T08:39:23;22.33;;;9.60;;
58615;SDS011;44385;51.992;4.206;2024-03-22T08:41:51;19.55;;;7.88;;
58615;SDS011;44385;51.992;4.206;2024-03-22T08:44:17;25.23;;;9.15;;
58615;SDS011;44385;51.992;4.206;2024-03-22T08:46:44;28.08;;;9.95;;
58615;SDS011;44385;51.992;4.206;2024-03-22T08:49:09;28.55;;;10.45;;
58615;SDS011;44385;51.992;4.206;2024-03-22T08:51:37;21.55;;;9.25;;
58615;SDS011;44385;51.992;4.206;2024-03-22T08:54:02;24.52;;;9.45;;
58615;SDS011;44385;51.992;4.206;2024-03-22T08:58:58;24.63;;;8.32;;
58615;SDS011;44385;51.992;4.206;2024-03-22T09:01:25;27.80;;;9.38;;
58615;SDS011;44385;51.992;4.206;2024-03-22T09:03:53;21.67;;;8.32;;
58615;SDS011;44385;51.992;4.206;2024-03-22T09:06:20;26.52;;;9.23;;
58615;SDS011;44385;51.992;4.206;2024-03-22T09:08:46;23.25;;;9.10;;
58615;SDS011;44385;51.992;4.206;2024-03-22T09:11:19;20.92;;;8.18;;
58615;SDS011;44385;51.992;4.206;2024-03-22T09:13:52;20.63;;;8.10;;
58615;SDS011;44385;51.992;4.206;2024-03-22T09:16:20;28.15;;;9.20;;
58615;SDS011;44385;51.992;4.206;2024-03-22T09:18:46;23.80;;;9.45;;
58615;SDS011;44385;51.992;4.206;2024-03-22T09:21:18;17.80;;;7.90;;
58615;SDS011;44385;51.992;4.206;2024-03-22T09:23:43;20.67;;;8.50;;
58615;SDS011;44385;51.992;4.206;2024-03-22T09:26:18;23.90;;;9.50;;
58615;SDS011;44385;51.992;4.206;2024-03-22T09:28:45;26.83;;;8.98;;
58615;SDS011;44385;51.992;4.206;2024-03-22T09:31:12;21.63;;;8.95;;
58615;SDS011;44385;51.992;4.206;2024-03-22T09:33:41;29.15;;;8.80;;
58615;SDS011;44385;51.992;4.206;2024-03-22T09:38:34;19.13;;;8.57;;
58615;SDS011;44385;51.992;4.206;2024-03-22T09:41:06;25.50;;;10.18;;
58615;SDS011;44385;51.992;4.206;2024-03-22T09:43:31;29.15;;;10.68;;
58615;SDS011;44385;51.992;4.206;2024-03-22T09:45:58;26.15;;;10.57;;
58615;SDS011;44385;51.992;4.206;2024-03-22T09:48:25;23.42;;;10.57;;
58615;SDS011;44385;51.992;4.206;2024-03-22T09:50:54;23.75;;;11.00;;
58615;SDS011;44385;51.992;4.206;2024-03-22T09:53:20;22.88;;;11.05;;
58615;SDS011;44385;51.992;4.206;2024-03-22T09:55:47;19.60;;;10.70;;
58615;SDS011;44385;51.992;4.206;2024-03-22T09:58:13;26.40;;;13.07;;
58615;SDS011;44385;51.992;4.206;2024-03-22T10:00:42;27.13;;;13.20;;
58615;SDS011;44385;51.992;4.206;2024-03-22T10:03:07;28.25;;;12.25;;
58615;SDS011;44385;51.992;4.206;2024-03-22T10:05:34;23.52;;;12.05;;
58615;SDS011;44385;51.992;4.206;2024-03-22T10:08:01;25.25;;;11.80;;
58615;SDS011;44385;51.992;4.206;2024-03-22T10:10:30;25.48;;;12.32;;
58615;SDS011;44385;51.992;4.206;2024-03-22T10:12:55;25.58;;;13.05;;
58615;SDS011;44385;51.992;4.206;2024-03-22T10:15:23;27.70;;;13.43;;
58615;SDS011;44385;51.992;4.206;2024-03-22T10:17:48;23.55;;;13.75;;
58615;SDS011;44385;51.992;4.206;2024-03-22T10:20:15;29.25;;;15.68;;
58615;SDS011;44385;51.992;4.206;2024-03-22T10:22:43;29.48;;;14.63;;
58615;SDS011;44385;51.992;4.206;2024-03-22T10:25:16;26.73;;;13.45;;
58615;SDS011;44385;51.992;4.206;2024-03-22T10:27:42;26.67;;;13.40;;
58615;SDS011;44385;51.992;4.206;2024-03-22T10:30:09;27.60;;;13.30;;
58615;SDS011;44385;51.992;4.206;2024-03-22T10:32:35;25.33;;;13.10;;
58615;SDS011;44385;51.992;4.206;2024-03-22T10:35:04;23.75;;;13.73;;
58615;SDS011;44385;51.992;4.206;2024-03-22T10:37:31;25.50;;;12.38;;
58615;SDS011;44385;51.992;4.206;2024-03-22T10:40:02;28.10;;;14.40;;
58615;SDS011;44385;51.992;4.206;2024-03-22T10:42:47;29.73;;;12.45;;
58615;SDS011;44385;51.992;4.206;2024-03-22T10:45:15;28.02;;;13.80;;
58615;SDS011;44385;51.992;4.206;2024-03-22T10:47:47;22.30;;;12.90;;
58615;SDS011;44385;51.992;4.206;2024-03-22T10:50:14;24.50;;;13.88;;
58615;SDS011;44385;51.992;4.206;2024-03-22T10:52:42;22.73;;;12.25;;
58615;SDS011;44385;51.992;4.206;2024-03-22T10:55:12;20.98;;;13.32;;
58615;SDS011;44385;51.992;4.206;2024-03-22T10:57:38;26.15;;;12.45;;
58615;SDS011;44385;51.992;4.206;2024-03-22T11:00:11;23.55;;;14.05;;
58615;SDS011;44385;51.992;4.206;2024-03-22T11:02:36;24.83;;;13.50;;
58615;SDS011;44385;51.992;4.206;2024-03-22T11:05:03;25.77;;;13.98;;
58615;SDS011;44385;51.992;4.206;2024-03-22T11:07:29;29.25;;;13.38;;
58615;SDS011;44385;51.992;4.206;2024-03-22T11:09:56;19.70;;;12.23;;
58615;SDS011;44385;51.992;4.206;2024-03-22T11:12:23;27.73;;;14.57;;
58615;SDS011;44385;51.992;4.206;2024-03-22T11:14:50;23.75;;;13.75;;
58615;SDS011;44385;51.992;4.206;2024-03-22T11:17:18;17.75;;;11.45;;
58615;SDS011;44385;51.992;4.206;2024-03-22T11:19:46;19.73;;;11.27;;
58615;SDS011;44385;51.992;4.206;2024-03-22T11:22:19;20.05;;;12.98;;
58615;SDS011;44385;51.992;4.206;2024-03-22T11:24:47;21.70;;;12.77;;
58615;SDS011;44385;51.992;4.206;2024-03-22T11:27:13;25.73;;;11.88;;
58615;SDS011;44385;51.992;4.206;2024-03-22T11:29:40;24.73;;;12.82;;
58615;SDS011;44385;51.992;4.206;2024-03-22T11:32:06;27.23;;;12.90;;
58615;SDS011;44385;51.992;4.206;2024-03-22T11:34:44;23.73;;;13.38;;
58615;SDS011;44385;51.992;4.206;2024-03-22T11:37:11;22.88;;;13.40;;
58615;SDS011;44385;51.992;4.206;2024-03-22T11:39:38;23.80;;;13.88;;
58615;SDS011;44385;51.992;4.206;2024-03-22T11:42:03;24.38;;;12.80;;
58615;SDS011;44385;51.992;4.206;2024-03-22T11:44:31;23.65;;;13.93;;
58615;SDS011;44385;51.992;4.206;2024-03-22T11:46:56;19.58;;;13.23;;
58615;SDS011;44385;51.992;4.206;2024-03-22T11:49:23;29.80;;;15.25;;
58615;SDS011;44385;51.992;4.206;2024-03-22T11:51:51;24.13;;;14.73;;
58615;SDS011;44385;51.992;4.206;2024-03-22T11:54:18;21.10;;;14.05;;
58615;SDS011;44385;51.992;4.206;2024-03-22T11:56:45;22.17;;;13.55;;
58615;SDS011;44385;51.992;4.206;2024-03-22T11:59:11;22.45;;;12.63;;
58615;SDS011;44385;51.992;4.206;2024-03-22T12:01:37;27.38;;;15.63;;
58615;SDS011;44385;51.992;4.206;2024-03-22T12:04:07;23.70;;;15.07;;
58615;SDS011;44385;51.992;4.206;2024-03-22T12:06:33;26.10;;;15.23;;
58615;SDS011;44385;51.992;4.206;2024-03-22T12:09:01;25.77;;;15.38;;
58615;SDS011;44385;51.992;4.206;2024-03-22T12:11:28;28.03;;;14.97;;
58615;SDS011;44385;51.992;4.206;2024-03-22T12:13:55;25.23;;;15.02;;
58615;SDS011;44385;51.992;4.206;2024-03-22T12:16:21;23.27;;;14.48;;
58615;SDS011;44385;51.992;4.206;2024-03-22T12:18:48;26.10;;;16.52;;
58615;SDS011;44385;51.992;4.206;2024-03-22T12:21:16;28.17;;;15.90;;
58615;SDS011;44385;51.992;4.206;2024-03-22T12:23:43;30.05;;;16.95;;
58615;SDS011;44385;51.992;4.206;2024-03-22T12:26:09;31.63;;;16.63;;
58615;SDS011;44385;51.992;4.206;2024-03-22T12:28:36;24.10;;;13.82;;
58615;SDS011;44385;51.992;4.206;2024-03-22T12:31:01;30.08;;;14.93;;
58615;SDS011;44385;51.992;4.206;2024-03-22T12:33:28;32.40;;;15.60;;
58615;SDS011;44385;51.992;4.206;2024-03-22T12:35:55;26.65;;;16.75;;
58615;SDS011;44385;51.992;4.206;2024-03-22T12:38:22;27.10;;;14.77;;
58615;SDS011;44385;51.992;4.206;2024-03-22T12:40:48;28.98;;;15.63;;
58615;SDS011;44385;51.992;4.206;2024-03-22T12:43:17;27.48;;;14.90;;
58615;SDS011;44385;51.992;4.206;2024-03-22T12:45:42;26.20;;;14.38;;
58615;SDS011;44385;51.992;4.206;2024-03-22T12:48:09;25.83;;;14.15;;
58615;SDS011;44385;51.992;4.206;2024-03-22T12:50:34;28.88;;;14.88;;
58615;SDS011;44385;51.992;4.206;2024-03-22T12:53:01;24.67;;;15.05;;
58615;SDS011;44385;51.992;4.206;2024-03-22T12:55:27;27.95;;;15.10;;
58615;SDS011;44385;51.992;4.206;2024-03-22T12:57:56;26.95;;;15.20;;
58615;SDS011;44385;51.992;4.206;2024-03-22T13:00:23;24.67;;;13.75;;
58615;SDS011;44385;51.992;4.206;2024-03-22T13:02:50;25.10;;;13.27;;
58615;SDS011;44385;51.992;4.206;2024-03-22T13:05:19;27.10;;;15.82;;
58615;SDS011;44385;51.992;4.206;2024-03-22T13:10:11;23.80;;;13.38;;
58615;SDS011;44385;51.992;4.206;2024-03-22T13:12:37;26.02;;;14.77;;
58615;SDS011;44385;51.992;4.206;2024-03-22T13:15:03;30.45;;;15.65;;
58615;SDS011;44385;51.992;4.206;2024-03-22T13:17:34;27.60;;;14.50;;
58615;SDS011;44385;51.992;4.206;2024-03-22T13:20:00;27.30;;;14.35;;
58615;SDS011;44385;51.992;4.206;2024-03-22T13:22:26;25.92;;;15.00;;
58615;SDS011;44385;51.992;4.206;2024-03-22T13:24:52;27.63;;;15.32;;
58615;SDS011;44385;51.992;4.206;2024-03-22T13:27:18;26.50;;;14.57;;
58615;SDS011;44385;51.992;4.206;2024-03-22T13:29:47;24.63;;;14.18;;
58615;SDS011;44385;51.992;4.206;2024-03-22T13:32:14;32.95;;;14.40;;
58615;SDS011;44385;51.992;4.206;2024-03-22T13:34:41;18.75;;;12.18;;
58615;SDS011;44385;51.992;4.206;2024-03-22T13:37:08;27.55;;;14.63;;
58615;SDS011;44385;51.992;4.206;2024-03-22T13:39:33;26.17;;;15.43;;
58615;SDS011;44385;51.992;4.206;2024-03-22T13:42:00;21.95;;;13.88;;
58615;SDS011;44385;51.992;4.206;2024-03-22T13:44:26;25.80;;;13.27;;
58615;SDS011;44385;51.992;4.206;2024-03-22T13:46:53;20.27;;;13.45;;
58615;SDS011;44385;51.992;4.206;2024-03-22T13:49:19;23.00;;;13.93;;
58615;SDS011;44385;51.992;4.206;2024-03-22T13:51:47;24.98;;;13.70;;
58615;SDS011;44385;51.992;4.206;2024-03-22T13:54:13;23.42;;;15.20;;
58615;SDS011;44385;51.992;4.206;2024-03-22T13:56:39;29.05;;;14.07;;
58615;SDS011;44385;51.992;4.206;2024-03-22T13:59:05;25.88;;;13.48;;
58615;SDS011;44385;51.992;4.206;2024-03-22T14:01:33;30.20;;;14.48;;
58615;SDS011;44385;51.992;4.206;2024-03-22T14:03:59;27.08;;;14.68;;
58615;SDS011;44385;51.992;4.206;2024-03-22T14:06:26;25.60;;;15.68;;
58615;SDS011;44385;51.992;4.206;2024-03-22T14:08:52;25.92;;;15.40;;
58615;SDS011;44385;51.992;4.206;2024-03-22T14:11:25;22.83;;;14.00;;
58615;SDS011;44385;51.992;4.206;2024-03-22T14:13:50;25.48;;;15.63;;
58615;SDS011;44385;51.992;4.206;2024-03-22T14:16:17;28.27;;;15.23;;
58615;SDS011;44385;51.992;4.206;2024-03-22T14:18:43;27.42;;;15.15;;
58615;SDS011;44385;51.992;4.206;2024-03-22T14:21:09;28.33;;;14.90;;
58615;SDS011;44385;51.992;4.206;2024-03-22T14:23:36;23.30;;;14.02;;
58615;SDS011;44385;51.992;4.206;2024-03-22T14:26:07;23.02;;;14.13;;
58615;SDS011;44385;51.992;4.206;2024-03-22T14:28:34;23.20;;;13.35;;
58615;SDS011;44385;51.992;4.206;2024-03-22T14:31:02;29.05;;;15.23;;